Terminal Aerodrome Forecast
Issued by NWS

Home | Current Version | Previous Version | Text Only | Print | Product List | Glossary On
Versions: 1 2 3 4 5 6 7 8 9 10 11 12 13 14 15 16 17 18 19 20 21 22 23 24 25 26 27
000
FTUS42 KTAE 051700
TAFECP
TAF
KECP 051731Z 0518/0618 18012G20KT 5SM -RA BKN008 OVC025
     FM052000 34013KT 4SM -RA OVC012
     FM060000 36012KT P6SM OVC020=

USA.gov is the U.S. government's official web portal to all federal, state and local government web resources and services.